Time;durP1;ratioP1;P1;durP2;ratioP2;P2;SDS_P1;SDS_P2;PMS_P1;PMS_P2;Temp;Humidity;BMP_temperature;BMP_pressure;BME280_temperature;BME280_humidity;BME280_pressure;Samples;Min_cycle;Max_cycle;Signal;HPM_P1;HPM_P2
2022/05/05 00:01:49;;;;;;;12.23;7.97;;;;;;;14.09;76.88;99520.19;4458689;32;35015;-71
2022/05/05 00:04:19;;;;;;;14.15;8.55;;;;;;;14.09;77.25;99521.03;4463883;32;34398;-71
2022/05/05 00:06:50;;;;;;;20.73;9.27;;;;;;;14.21;76.62;99530.38;4469799;32;32743;-71
2022/05/05 00:09:18;;;;;;;14.75;8.43;;;;;;;14.81;73.90;99526.38;4454868;32;34494;-71
2022/05/05 00:14:32;;;;;;;13.62;8.27;;;;;;;14.82;72.52;99522.81;4455082;32;34509;-71
2022/05/05 00:17:03;;;;;;;15.23;7.93;;;;;;;15.05;71.51;99524.84;4465145;32;33592;-71
2022/05/05 00:19:34;;;;;;;12.13;7.35;;;;;;;14.83;72.22;99519.31;4466513;32;33209;-71
2022/05/05 00:22:04;;;;;;;11.63;7.10;;;;;;;14.78;72.35;99527.28;4454968;32;35056;-71
2022/05/05 00:24:32;;;;;;;10.40;6.97;;;;;;;14.90;71.42;99523.50;4453782;32;34297;-71
2022/05/05 00:27:00;;;;;;;11.75;7.82;;;;;;;14.98;70.90;99526.81;4455230;32;34232;-71
2022/05/05 00:29:29;;;;;;;14.55;7.47;;;;;;;14.51;71.97;99526.19;4470530;32;34760;-70
2022/05/05 00:31:57;;;;;;;14.65;7.15;;;;;;;14.23;73.89;99524.19;4468949;32;35907;-71
2022/05/05 00:34:24;;;;;;;12.05;7.70;;;;;;;14.44;72.96;99513.28;4465569;32;34456;-70
2022/05/05 00:36:53;;;;;;;12.07;7.25;;;;;;;14.09;73.87;99521.03;4454318;32;33393;-70
2022/05/05 00:39:20;;;;;;;11.55;7.57;;;;;;;13.83;75.95;99518.97;4468960;32;33980;-71
2022/05/05 00:41:48;;;;;;;13.38;7.55;;;;;;;13.70;75.94;99515.75;4460597;32;35084;-71
2022/05/05 00:44:16;;;;;;;12.18;8.40;;;;;;;13.69;76.49;99515.78;4454708;32;34410;-71
2022/05/05 00:46:48;;;;;;;12.20;7.57;;;;;;;13.38;77.88;99512.03;4454367;32;33455;-71
2022/05/05 00:49:17;;;;;;;14.25;8.57;;;;;;;13.92;75.50;99510.06;4454745;32;33930;-71
2022/05/05 00:51:45;;;;;;;14.32;8.80;;;;;;;13.84;75.21;99505.00;4453730;32;35144;-71
2022/05/05 00:54:13;;;;;;;11.23;7.20;;;;;;;13.54;76.89;99506.50;4453508;32;35135;-71
2022/05/05 00:56:44;;;;;;;11.20;6.30;;;;;;;13.77;76.46;99506.03;4460815;32;34252;-71
2022/05/05 00:59:12;;;;;;;12.10;7.80;;;;;;;14.16;73.81;99500.81;4470297;32;33900;-71
2022/05/05 01:01:40;;;;;;;10.80;6.35;;;;;;;13.83;75.41;99504.13;4468376;32;35110;-70
2022/05/05 01:04:08;;;;;;;9.85;7.00;;;;;;;14.21;73.75;99502.41;4470196;32;34472;-71
2022/05/05 01:06:36;;;;;;;12.02;6.93;;;;;;;14.17;73.68;99499.91;4468780;32;33303;-70
2022/05/05 01:09:06;;;;;;;9.70;6.55;;;;;;;13.91;74.79;99500.50;4470282;32;33091;-71
2022/05/05 01:11:34;;;;;;;10.15;7.10;;;;;;;13.83;75.17;99511.13;4462649;32;35906;-70
2022/05/05 01:14:02;;;;;;;12.30;7.22;;;;;;;14.01;74.44;99508.13;4453914;32;35124;-71
2022/05/05 01:16:31;;;;;;;9.10;6.70;;;;;;;13.33;78.33;99511.25;4459618;32;34280;-70
2022/05/05 01:18:59;;;;;;;11.73;6.87;;;;;;;13.55;76.77;99509.06;4469979;32;34623;-72
2022/05/05 01:21:27;;;;;;;9.82;6.03;;;;;;;14.07;74.40;99509.72;4467099;32;35966;-70
2022/05/05 01:23:54;;;;;;;12.27;6.82;;;;;;;13.77;75.31;99519.97;4469158;32;34484;-71
2022/05/05 01:29:11;;;;;;;10.68;7.07;;;;;;;13.63;75.13;99519.41;4454418;32;34694;-71
2022/05/05 01:31:40;;;;;;;9.88;6.75;;;;;;;13.16;78.28;99515.91;4446289;32;34872;-71
2022/05/05 01:34:07;;;;;;;11.68;6.15;;;;;;;13.11;78.49;99517.75;4454296;32;34379;-71
2022/05/05 01:36:35;;;;;;;11.57;7.40;;;;;;;13.70;75.48;99512.28;4453794;32;34243;-71
2022/05/05 01:39:03;;;;;;;11.70;8.35;;;;;;;12.81;79.07;99514.78;4453704;32;33926;-71
2022/05/05 01:41:31;;;;;;;12.73;6.85;;;;;;;13.00;78.76;99520.56;4456195;32;35013;-71
2022/05/05 01:44:00;;;;;;;11.18;5.95;;;;;;;13.53;75.89;99525.69;4454076;32;34295;-70
2022/05/05 01:46:28;;;;;;;11.30;7.00;;;;;;;13.48;74.65;99531.00;4453782;32;33340;-71
2022/05/05 01:48:56;;;;;;;11.80;6.70;;;;;;;12.86;78.70;99533.84;4454205;32;33966;-71
2022/05/05 01:51:23;;;;;;;12.68;7.60;;;;;;;13.31;76.36;99536.59;4452842;32;35336;-71
2022/05/05 01:53:51;;;;;;;11.73;7.57;;;;;;;13.39;75.74;99545.13;4453406;32;34385;-71
2022/05/05 01:56:20;;;;;;;14.02;7.22;;;;;;;12.77;78.59;99555.78;4453027;32;33571;-73
2022/05/05 01:58:48;;;;;;;10.15;7.53;;;;;;;12.65;79.09;99561.19;4453727;32;33979;-71
2022/05/05 02:01:16;;;;;;;13.25;8.65;;;;;;;12.40;80.30;99576.38;4456568;32;35108;-74
2022/05/05 02:03:44;;;;;;;11.05;7.05;;;;;;;12.07;83.31;99579.44;4469230;32;34291;-73
2022/05/05 02:06:15;;;;;;;11.88;6.93;;;;;;;12.62;80.38;99582.16;4467931;32;33559;-73
2022/05/05 02:08:43;;;;;;;12.75;7.55;;;;;;;12.40;80.27;99586.81;4457591;32;33960;-72
2022/05/05 02:11:11;;;;;;;11.43;7.87;;;;;;;12.39;80.02;99585.97;4458387;32;35075;-71
2022/05/05 02:13:39;;;;;;;11.00;7.40;;;;;;;12.29;81.06;99585.22;4453747;32;34413;-71
2022/05/05 02:16:06;;;;;;;14.30;7.62;;;;;;;13.28;75.32;99583.66;4456133;32;33420;-71
2022/05/05 02:18:35;;;;;;;12.88;7.60;;;;;;;13.22;74.31;99579.41;4470117;32;34028;-71
2022/05/05 02:21:02;;;;;;;15.00;8.80;;;;;;;12.91;75.96;99584.31;4465730;32;34971;-71
2022/05/05 02:23:30;;;;;;;14.13;8.43;;;;;;;12.28;78.60;99583.50;4471177;32;34505;-74
2022/05/05 02:25:58;;;;;;;15.57;8.68;;;;;;;13.07;74.95;99591.00;4469937;32;33563;-74
2022/05/05 02:28:26;;;;;;;16.08;7.55;;;;;;;12.81;75.71;99582.72;4471115;32;34742;-71
2022/05/05 02:30:54;;;;;;;13.75;8.13;;;;;;;12.43;77.02;99590.25;4469928;32;34763;-70
2022/05/05 02:33:22;;;;;;;12.02;7.47;;;;;;;12.18;77.75;99581.91;4441549;32;34409;-70
2022/05/05 02:38:42;;;;;;;15.35;8.75;;;;;;;11.99;79.02;99580.41;4455604;32;33474;-71
2022/05/05 02:38:44;;;;;;;12.60;8.05;;;;;;;12.30;78.59;99586.97;4455515;32;33968;-72
2022/05/05 02:41:12;;;;;;;21.08;10.45;;;;;;;12.05;80.34;99577.72;4458842;32;35021;-72
2022/05/05 02:43:40;;;;;;;14.40;8.77;;;;;;;11.76;83.03;99581.53;4447445;32;35144;-73
2022/05/05 02:46:09;;;;;;;15.95;10.10;;;;;;;12.82;77.91;99584.47;4441304;32;33599;-73
2022/05/05 02:48:37;;;;;;;13.45;8.60;;;;;;;12.00;81.83;99583.03;4454306;32;33920;-70
2022/05/05 02:51:05;;;;;;;16.33;8.85;;;;;;;12.26;79.53;99580.03;4454926;32;35989;-72
2022/05/05 02:56:20;;;;;;;12.85;8.60;;;;;;;12.51;77.88;99580.56;4456383;32;33441;-70
2022/05/05 02:58:48;;;;;;;14.38;8.90;;;;;;;12.73;76.05;99574.16;4454278;32;33277;-70
2022/05/05 03:01:15;;;;;;;12.52;8.07;;;;;;;12.37;76.77;99577.31;4454869;32;35892;-70
2022/05/05 03:03:44;;;;;;;14.55;7.95;;;;;;;12.32;78.28;99577.34;4454637;32;34378;-75
2022/05/05 03:06:12;;;;;;;10.68;7.75;;;;;;;12.32;76.40;99582.56;4454757;32;33358;-72
2022/05/05 03:08:40;;;;;;;11.05;7.12;;;;;;;12.73;74.93;99575.00;4470846;32;34768;-73
2022/05/05 03:11:08;;;;;;;11.55;7.62;;;;;;;12.70;74.42;99575.06;4469837;32;36098;-70
2022/05/05 03:13:36;;;;;;;9.95;6.78;;;;;;;12.38;75.75;99565.94;4455231;32;35263;-70
2022/05/05 03:16:04;;;;;;;10.48;7.65;;;;;;;12.21;76.74;99571.44;4454600;32;34256;-70
2022/05/05 03:18:32;;;;;;;12.05;7.43;;;;;;;12.54;76.28;99574.44;4467187;32;32102;-70
2022/05/05 03:21:00;;;;;;;12.00;7.47;;;;;;;12.49;77.50;99576.25;4469412;32;35149;-70
2022/05/05 03:23:28;;;;;;;13.18;8.48;;;;;;;12.67;77.11;99570.75;4469128;32;34429;-74
2022/05/05 03:25:56;;;;;;;11.10;7.22;;;;;;;12.56;77.92;99569.19;4470688;32;34264;-74
2022/05/05 03:28:24;;;;;;;11.07;7.35;;;;;;;12.79;76.89;99558.37;4455701;32;34057;-74
2022/05/05 03:30:52;;;;;;;11.10;7.00;;;;;;;12.35;79.59;99560.75;4461050;32;35785;-74
2022/05/05 03:33:19;;;;;;;12.55;7.65;;;;;;;12.65;77.80;99556.84;4469207;32;34420;-74
2022/05/05 03:35:47;;;;;;;12.68;7.90;;;;;;;12.71;78.66;99561.13;4470886;32;33547;-71
2022/05/05 03:38:15;;;;;;;12.50;7.57;;;;;;;12.32;81.49;99568.66;4463086;32;34797;-74
2022/05/05 03:40:45;;;;;;;14.60;8.80;;;;;;;12.45;81.51;99559.75;4455031;32;34989;-71
2022/05/05 03:43:12;;;;;;;12.95;8.32;;;;;;;12.42;82.22;99564.16;4454593;32;34502;-71
2022/05/05 03:45:40;;;;;;;14.32;8.50;;;;;;;12.84;80.59;99564.38;4454975;32;34386;-71
2022/05/05 03:48:09;;;;;;;18.83;8.70;;;;;;;12.94;80.98;99562.50;4456166;32;33994;-71
2022/05/05 03:50:36;;;;;;;16.08;9.18;;;;;;;12.95;80.52;99557.22;4454915;32;35143;-71
2022/05/05 03:53:05;;;;;;;17.80;10.20;;;;;;;13.29;79.50;99564.50;4465606;32;34491;-70
2022/05/05 03:55:33;;;;;;;15.43;9.15;;;;;;;13.81;76.80;99563.50;4470005;32;34178;-71
2022/05/05 03:58:01;;;;;;;15.75;9.32;;;;;;;13.87;76.56;99572.13;4444927;32;33794;-70
2022/05/05 04:00:29;;;;;;;14.63;10.10;;;;;;;13.59;77.55;99567.47;4455138;32;35065;-71
2022/05/05 04:05:43;;;;;;;12.43;7.68;;;;;;;13.92;77.49;99570.28;4455180;32;33707;-71
2022/05/05 04:08:12;;;;;;;12.60;8.27;;;;;;;14.01;76.67;99567.44;4454589;32;33792;-70
2022/05/05 04:10:39;;;;;;;11.02;7.20;;;;;;;13.83;77.06;99569.56;4455218;32;35034;-70
2022/05/05 04:13:08;;;;;;;12.15;7.70;;;;;;;13.93;77.19;99570.25;4453959;32;35073;-71
2022/05/05 04:15:36;;;;;;;14.93;9.52;;;;;;;14.01;77.02;99570.06;4454978;32;33512;-70
2022/05/05 04:18:05;;;;;;;16.27;8.82;;;;;;;14.53;73.75;99568.94;4462206;32;34244;-71
2022/05/05 04:20:33;;;;;;;12.23;8.38;;;;;;;14.91;71.47;99569.81;4465020;32;35772;-71
2022/05/05 04:23:01;;;;;;;11.57;7.53;;;;;;;14.77;72.14;99577.13;4454424;32;34348;-71
2022/05/05 04:25:49;;;;;;;14.60;8.23;;;;;;;15.04;70.70;99569.50;4454911;32;33399;-71
2022/05/05 04:28:18;;;;;;;11.77;8.55;;;;;;;15.11;70.18;99578.94;4454344;32;34092;-71
2022/05/05 04:30:45;;;;;;;12.63;8.50;;;;;;;14.99;71.01;99582.72;4454460;32;35884;-71
2022/05/05 04:33:13;;;;;;;11.45;7.55;;;;;;;15.26;70.57;99581.13;4468647;32;34461;-71
2022/05/05 04:35:41;;;;;;;12.48;7.60;;;;;;;15.11;72.00;99584.19;4468294;32;33477;-71
2022/05/05 04:38:09;;;;;;;12.23;8.13;;;;;;;15.27;72.72;99590.75;4458388;32;33762;-71
2022/05/05 04:40:37;;;;;;;13.10;7.47;;;;;;;15.17;74.30;99587.47;4454870;32;34976;-71
2022/05/05 04:43:05;;;;;;;12.30;7.78;;;;;;;15.12;74.03;99588.50;4464524;32;35058;-71
2022/05/05 04:45:33;;;;;;;14.18;7.75;;;;;;;15.26;72.20;99581.13;4470413;32;33446;-71
2022/05/05 04:48:00;;;;;;;12.50;7.87;;;;;;;15.53;70.90;99583.97;4468909;32;34672;-71
2022/05/05 04:50:28;;;;;;;13.07;7.82;;;;;;;15.58;70.10;99582.03;4468646;32;35054;-71
2022/05/05 04:52:56;;;;;;;12.27;7.87;;;;;;;15.68;69.56;99587.91;4468527;32;35232;-71
2022/05/05 04:55:24;;;;;;;12.18;7.32;;;;;;;15.78;69.14;99583.31;4470131;32;33706;-71
2022/05/05 04:57:52;;;;;;;10.85;7.45;;;;;;;16.05;67.80;99587.75;4460592;32;34835;-71
2022/05/05 05:00:21;;;;;;;11.45;7.60;;;;;;;15.99;68.04;99582.69;4454679;32;34925;-70
2022/05/05 05:02:49;;;;;;;10.95;8.10;;;;;;;16.18;67.81;99582.13;4462291;32;34279;-71
2022/05/05 05:05:17;;;;;;;11.85;8.02;;;;;;;15.96;69.79;99581.94;4470194;32;33393;-71
2022/05/05 05:07:45;;;;;;;15.32;7.53;;;;;;;16.05;69.04;99577.25;4453563;32;34752;-71
2022/05/05 05:10:12;;;;;;;14.30;8.55;;;;;;;16.12;68.80;99578.78;4469490;32;35442;-70
2022/05/05 05:12:40;;;;;;;12.32;8.07;;;;;;;15.81;69.20;99583.22;4468620;32;34456;-70
2022/05/05 05:15:09;;;;;;;16.12;9.10;;;;;;;16.14;69.30;99581.37;4470081;32;33558;-71
2022/05/05 05:17:36;;;;;;;13.25;9.00;;;;;;;16.23;68.48;99588.97;4465228;32;34798;-70
2022/05/05 05:20:05;;;;;;;15.10;8.63;;;;;;;16.40;67.42;99588.47;4454523;32;35816;-71
2022/05/05 05:22:33;;;;;;;19.87;9.88;;;;;;;16.53;67.26;99590.72;4456064;32;34981;-71
2022/05/05 05:25:02;;;;;;;12.75;8.35;;;;;;;16.37;67.39;99585.94;4454309;32;34410;-71
2022/05/05 05:27:30;;;;;;;11.95;8.18;;;;;;;16.44;66.59;99589.25;4461818;32;34027;-71
2022/05/05 05:29:58;;;;;;;13.60;8.50;;;;;;;16.94;64.68;99589.44;4469509;32;34911;-71
2022/05/05 05:32:26;;;;;;;12.85;7.75;;;;;;;16.63;66.77;99589.53;4469793;32;34358;-71
2022/05/05 05:34:54;;;;;;;12.50;7.87;;;;;;;16.64;65.40;99599.13;4469961;32;34157;-71
2022/05/05 05:37:22;;;;;;;10.13;7.05;;;;;;;17.15;63.68;99595.72;4468993;32;33938;-71
2022/05/05 05:39:50;;;;;;;12.75;6.90;;;;;;;17.17;63.33;99596.56;4461044;32;35249;-71
2022/05/05 05:42:18;;;;;;;9.70;7.05;;;;;;;17.36;62.93;99596.78;4454123;32;34484;-71
2022/05/05 05:44:46;;;;;;;12.10;6.65;;;;;;;17.25;61.91;99594.50;4454049;32;34221;-72
2022/05/05 05:47:14;;;;;;;9.80;6.32;;;;;;;17.36;62.54;99596.78;4455165;32;33854;-71
2022/05/05 05:49:42;;;;;;;10.10;6.45;;;;;;;17.64;61.14;99601.09;4454773;32;35037;-71
2022/05/05 05:52:10;;;;;;;8.75;6.25;;;;;;;17.75;60.00;99603.34;4454794;32;34580;-71
2022/05/05 05:54:38;;;;;;;10.88;6.93;;;;;;;17.59;60.60;99598.63;4468709;32;33307;-71
2022/05/05 05:57:07;;;;;;;9.43;6.55;;;;;;;17.49;60.06;99604.25;4441748;32;34291;-71
2022/05/05 05:59:34;;;;;;;12.10;6.85;;;;;;;17.57;59.13;99607.50;4455853;32;35208;-71
2022/05/05 06:04:49;;;;;;;;;;;;;;;17.42;59.96;99611.53;4457167;32;32776;-71
2022/05/05 06:07:17;;;;;;;11.43;6.43;;;;;;;17.73;59.59;99607.81;4458053;32;34995;-72
2022/05/05 06:09:45;;;;;;;9.15;6.05;;;;;;;17.90;60.11;99612.50;4470349;32;35081;-71
2022/05/05 06:12:13;;;;;;;11.35;6.62;;;;;;;17.92;58.70;99616.78;4455571;32;34480;-71
2022/05/05 06:14:40;;;;;;;9.13;6.03;;;;;;;18.29;57.64;99615.41;4455830;32;33504;-71
2022/05/05 06:17:08;;;;;;;9.23;6.43;;;;;;;18.54;57.10;99607.41;4456747;32;34814;-71
2022/05/05 06:19:37;;;;;;;9.88;6.55;;;;;;;18.89;57.98;99614.88;4471303;32;35019;-71
2022/05/05 06:22:04;;;;;;;11.55;6.82;;;;;;;18.63;56.79;99616.75;4465251;32;34481;-71
2022/05/05 06:24:32;;;;;;;8.68;6.30;;;;;;;18.90;56.59;99621.84;4454847;32;34267;-71
2022/05/05 06:27:00;;;;;;;12.95;7.15;;;;;;;19.32;55.84;99615.72;4454633;32;34760;-71
2022/05/05 06:29:30;;;;;;;11.88;7.50;;;;;;;19.02;54.83;99616.09;4455707;32;35075;-71
2022/05/05 06:31:58;;;;;;;13.55;8.02;;;;;;;19.37;56.30;99616.41;4455141;32;35186;-72
2022/05/05 06:34:26;;;;;;;14.35;7.12;;;;;;;19.95;52.96;99614.81;4455718;32;33779;-71
2022/05/05 06:36:54;;;;;;;12.85;7.35;;;;;;;19.31;55.84;99630.72;4455875;32;34762;-72
2022/05/05 06:39:22;;;;;;;15.18;7.93;;;;;;;19.98;53.35;99628.75;4456564;32;34355;-71
2022/05/05 06:41:50;;;;;;;13.73;8.18;;;;;;;20.40;51.20;99630.38;4469938;32;34439;-71
2022/05/05 06:44:17;;;;;;;16.62;8.90;;;;;;;20.06;53.90;99636.31;4466185;32;33544;-71
2022/05/05 06:46:46;;;;;;;14.25;8.80;;;;;;;20.01;55.21;99641.84;4455150;32;34793;-72
2022/05/05 06:49:14;;;;;;;13.48;9.10;;;;;;;19.82;57.75;99636.50;4468976;32;35815;-72
2022/05/05 06:51:41;;;;;;;14.48;9.02;;;;;;;20.55;54.20;99639.34;4471195;32;34172;-72
2022/05/05 06:54:09;;;;;;;12.82;7.93;;;;;;;20.79;55.08;99637.38;4456589;32;34400;-71
2022/05/05 06:56:37;;;;;;;16.37;7.43;;;;;;;20.36;52.88;99627.91;4455425;32;34082;-72
2022/05/05 06:59:05;;;;;;;13.55;8.30;;;;;;;20.94;49.81;99634.91;4467007;32;35774;-72
2022/05/05 07:07:14;;;;;;;11.40;6.95;;;;;;;21.53;50.17;99646.12;4454088;32;33784;-72
2022/05/05 07:12:32;;;;;;;8.77;6.25;;;;;;;21.31;49.97;99641.88;4457487;32;35101;-72
2022/05/05 07:15:00;;;;;;;10.40;6.28;;;;;;;20.69;52.45;99645.81;4470982;32;34231;-71
2022/05/05 07:17:28;;;;;;;13.18;6.10;;;;;;;21.40;48.63;99644.06;4448757;32;33899;-71
2022/05/05 07:19:56;;;;;;;9.57;5.97;;;;;;;20.96;50.23;99647.12;4455197;32;34898;-72
2022/05/05 07:22:24;;;;;;;11.40;7.62;;;;;;;21.55;50.93;99641.63;4455006;32;34412;-71
2022/05/05 07:24:52;;;;;;;11.73;6.05;;;;;;;21.78;49.33;99654.53;4454255;32;33447;-71
2022/05/05 07:27:21;;;;;;;10.40;5.80;;;;;;;22.19;47.00;99655.94;4454641;32;34743;-72
2022/05/05 07:29:49;;;;;;;12.13;5.78;;;;;;;22.23;47.21;99648.66;4470643;32;35840;-71
2022/05/05 07:32:16;;;;;;;12.82;5.82;;;;;;;22.36;45.71;99638.25;4457089;32;34899;-72
2022/05/05 07:34:44;;;;;;;7.62;5.35;;;;;;;22.25;47.05;99657.37;4470959;32;34398;-72
2022/05/05 07:37:12;;;;;;;10.30;5.90;;;;;;;22.45;47.24;99651.91;4468463;32;34020;-71
2022/05/05 07:39:40;;;;;;;8.45;5.50;;;;;;;22.50;45.62;99648.97;4455121;32;35131;-71
2022/05/05 07:42:08;;;;;;;7.82;5.32;;;;;;;22.51;44.61;99656.84;4455125;32;34355;-71
2022/05/05 07:44:36;;;;;;;7.50;5.28;;;;;;;22.17;45.71;99656.97;4452133;32;32669;-71
2022/05/05 07:47:04;;;;;;;7.12;5.20;;;;;;;22.63;48.46;99657.13;4454585;32;34026;-71
2022/05/05 07:49:33;;;;;;;7.68;5.18;;;;;;;22.63;46.05;99657.97;4469163;32;35144;-71
2022/05/05 07:52:01;;;;;;;8.52;5.20;;;;;;;22.10;46.42;99653.78;4456806;32;34431;-71
2022/05/05 07:54:34;;;;;;;10.20;5.55;;;;;;;22.83;44.46;99662.16;4455411;32;33492;-71
2022/05/05 07:57:04;;;;;;;15.30;5.65;;;;;;;23.01;44.69;99662.06;4462094;32;34021;-71
2022/05/05 07:59:31;;;;;;;9.07;5.68;;;;;;;22.54;45.91;99663.81;4469146;32;35842;-72
2022/05/05 08:02:00;;;;;;;8.20;5.20;;;;;;;22.21;47.65;99656.69;4469418;32;34598;-71
2022/05/05 08:04:28;;;;;;;7.10;5.00;;;;;;;22.38;47.64;99662.91;4455568;32;34347;-71
2022/05/05 08:06:56;;;;;;;12.35;5.53;;;;;;;22.77;45.42;99669.62;4455093;32;33971;-72
2022/05/05 08:09:24;;;;;;;7.55;4.70;;;;;;;22.49;50.02;99666.69;4467731;32;35012;-72
2022/05/05 08:12:12;;;;;;;9.55;4.93;;;;;;;23.43;43.28;99671.19;4458762;32;33647;-71
2022/05/05 08:14:40;;;;;;;6.75;4.53;;;;;;;22.80;44.00;99670.31;4455101;32;31383;-72
2022/05/05 08:17:08;;;;;;;8.45;4.45;;;;;;;23.64;43.89;99672.56;4462200;32;34756;-72
2022/05/05 08:19:41;;;;;;;7.62;5.28;;;;;;;23.93;43.02;99678.00;4469363;32;32924;-72
2022/05/05 08:22:09;;;;;;;6.80;4.32;;;;;;;24.52;42.03;99671.72;4455475;32;34498;-71
2022/05/05 08:30:10;;;;;;;;;;;;;;;24.84;38.32;99671.50;4454960;32;35012;-70
2022/05/05 08:32:38;;;;;;;6.53;3.95;;;;;;;24.19;41.37;99673.72;4454448;32;35591;-71
2022/05/05 08:35:06;;;;;;;4.93;3.30;;;;;;;24.12;40.09;99676.84;4454804;32;33297;-72
2022/05/05 08:37:34;;;;;;;6.57;3.78;;;;;;;24.79;37.61;99669.09;4441763;32;32424;-71
2022/05/05 08:40:05;;;;;;;6.40;3.60;;;;;;;24.89;38.01;99685.38;4462675;32;35156;-75
2022/05/05 08:42:35;;;;;;;6.12;3.47;;;;;;;24.31;39.46;99677.41;4454746;32;34968;-72
2022/05/05 08:45:04;;;;;;;6.65;2.92;;;;;;;24.78;37.85;99675.41;4440991;32;32982;-72
2022/05/05 08:47:36;;;;;;;4.85;3.53;;;;;;;24.81;38.54;99679.66;4454644;32;33113;-72
2022/05/05 08:50:11;;;;;;;5.05;3.20;;;;;;;25.03;36.36;99679.16;4441044;32;36050;-75
2022/05/05 08:52:49;;;;;;;4.97;3.25;;;;;;;25.06;35.95;99690.47;4440684;32;34449;-74
2022/05/05 08:55:20;;;;;;;5.15;3.33;;;;;;;24.92;36.28;99687.84;4454726;32;34329;-75
2022/05/05 08:57:49;;;;;;;6.10;3.92;;;;;;;23.72;40.74;99685.44;4454530;32;34898;-75
2022/05/05 09:00:17;;;;;;;4.70;3.60;;;;;;;24.74;36.69;99679.19;4458720;32;35296;-75
2022/05/05 09:02:45;;;;;;;6.20;4.10;;;;;;;24.78;37.64;99678.91;4470111;32;34781;-76
2022/05/05 09:05:13;;;;;;;6.45;3.90;;;;;;;24.74;37.39;99674.75;4456214;32;33430;-75
2022/05/05 09:07:48;;;;;;;7.60;3.95;;;;;;;24.80;37.74;99684.16;4470022;32;34723;-75
2022/05/05 09:10:18;;;;;;;5.15;3.55;;;;;;;24.18;38.42;99685.31;4470124;32;35191;-77
2022/05/05 09:12:59;;;;;;;5.97;4.37;;;;;;;24.37;39.54;99687.69;4470017;32;34296;-75
2022/05/05 09:15:34;;;;;;;8.40;4.60;;;;;;;24.33;38.99;99688.81;4456324;32;34248;-75
2022/05/05 09:18:25;;;;;;;6.18;4.43;;;;;;;24.45;38.48;99683.69;4469362;32;33944;-76
2022/05/05 09:20:53;;;;;;;5.43;3.87;;;;;;;24.83;38.82;99693.75;4469976;32;34893;-77
2022/05/05 09:23:28;;;;;;;6.87;3.60;;;;;;;25.27;39.63;99692.69;4455914;32;34287;-77
2022/05/05 09:25:58;;;;;;;7.07;3.90;;;;;;;25.77;37.14;99695.59;4469871;32;33269;-78
2022/05/05 09:28:35;;;;;;;6.47;3.95;;;;;;;24.86;36.94;99697.06;4456653;32;33901;-77
2022/05/05 09:31:07;;;;;;;6.82;3.65;;;;;;;25.38;38.47;99690.19;4459569;32;317155;-79
2022/05/05 09:33:38;;;;;;;9.23;3.67;;;;;;;25.62;36.45;99689.47;4451299;32;34512;-74
2022/05/05 09:36:14;;;;;;;4.53;3.10;;;;;;;25.30;37.25;99695.16;4454124;32;32901;-75
2022/05/05 09:39:08;;;;;;;5.18;3.35;;;;;;;25.60;36.64;99694.06;4458607;32;33989;-74
2022/05/05 09:41:44;;;;;;;3.97;2.60;;;;;;;26.23;35.26;99692.44;4447801;32;36081;-74
2022/05/05 09:44:13;;;;;;;;;;;;;;;26.02;35.52;99695.63;4454646;32;35192;-72
2022/05/05 09:46:43;;;;;;;6.82;3.08;;;;;;;25.88;37.64;99693.88;4454989;32;34215;-76
2022/05/05 09:49:17;;;;;;;5.15;3.30;;;;;;;26.66;33.47;99695.56;4453567;32;34754;-78
2022/05/05 09:57:39;;;;;;;5.97;3.55;;;;;;;26.45;33.40;99708.66;4454143;32;35227;-76
2022/05/05 09:57:40;;;;;;;5.45;2.70;;;;;;;25.64;35.58;99684.88;4457846;32;34389;-75
2022/05/05 10:00:37;;;;;;;5.60;3.00;;;;;;;26.74;35.17;99691.53;4453800;32;34811;-75
2022/05/05 10:05:53;;;;;;;6.33;2.90;;;;;;;27.26;32.47;99686.81;4453026;32;34741;-78
2022/05/05 10:08:26;;;;;;;5.15;2.90;;;;;;;27.19;30.96;99692.62;4450933;32;33486;-76
2022/05/05 10:10:54;;;;;;;4.68;2.75;;;;;;;26.41;32.53;99695.63;4446648;32;34695;-76
2022/05/05 10:13:23;;;;;;;4.87;2.72;;;;;;;26.26;34.65;99682.38;4450787;32;34934;-76
2022/05/05 10:15:52;;;;;;;4.43;2.62;;;;;;;26.63;35.48;99694.94;4439855;32;34342;-75
2022/05/05 10:18:30;;;;;;;4.37;2.75;;;;;;;26.82;33.93;99684.62;4443109;32;33485;-76
2022/05/05 10:20:58;;;;;;;7.72;2.58;;;;;;;26.43;34.46;99683.84;4466157;32;33698;-75
2022/05/05 10:23:42;;;;;;;6.90;2.95;;;;;;;27.17;33.98;99691.03;4452584;32;35002;-75
2022/05/05 10:26:11;;;;;;;6.03;2.97;;;;;;;27.45;32.65;99680.97;4454036;32;34478;-76
2022/05/05 10:28:47;;;;;;;4.37;2.80;;;;;;;26.58;32.02;99686.41;4449579;32;34216;-75
2022/05/05 10:31:31;;;;;;;5.47;2.70;;;;;;;27.82;32.60;99688.87;4436897;32;33928;-75
2022/05/05 10:34:00;;;;;;;3.15;2.53;;;;;;;27.44;33.00;99677.44;4444192;32;35192;-78
2022/05/05 10:36:29;;;;;;;4.68;2.87;;;;;;;27.04;33.81;99683.09;4454915;32;34520;-75
2022/05/05 10:38:57;;;;;;;4.97;3.00;;;;;;;26.53;34.86;99680.53;4440487;32;33363;-75
2022/05/05 10:41:39;;;;;;;7.60;2.87;;;;;;;26.62;31.43;99688.75;4454459;32;33798;-76
2022/05/05 10:44:16;;;;;;;7.20;3.00;;;;;;;26.84;32.47;99681.84;4454794;32;35938;-73
2022/05/05 10:47:01;;;;;;;7.40;2.70;;;;;;;26.98;31.06;99679.00;4455676;32;34583;-76
2022/05/05 10:49:39;;;;;;;5.90;3.23;;;;;;;27.08;30.56;99684.56;4440187;32;33320;-77
2022/05/05 10:52:16;;;;;;;6.53;3.25;;;;;;;27.21;30.39;99679.13;4441236;32;33968;-73
2022/05/05 10:54:46;;;;;;;5.40;3.55;;;;;;;27.10;35.28;99681.78;4454854;32;35178;-75
2022/05/05 10:57:23;;;;;;;4.30;2.92;;;;;;;27.46;31.20;99682.66;4453610;32;35014;-76
2022/05/05 11:00:24;;;;;;;3.80;2.90;;;;;;;28.01;28.69;99678.47;4454725;32;34253;-75
2022/05/05 11:03:00;;;;;;;5.10;3.00;;;;;;;27.74;31.69;99673.37;4406484;32;34834;-76
2022/05/05 11:05:35;;;;;;;4.85;2.83;;;;;;;27.33;30.89;99667.56;4440012;32;34813;-73
2022/05/05 11:08:09;;;;;;;4.30;3.05;;;;;;;27.54;30.71;99672.25;4446489;32;34558;-76
2022/05/05 11:10:40;;;;;;;3.95;2.92;;;;;;;27.72;31.30;99678.84;4455750;32;33442;-75
2022/05/05 11:13:37;;;;;;;3.67;2.72;;;;;;;27.73;33.17;99669.88;4453839;32;33123;-75
2022/05/05 11:22:25;;;;;;;4.62;2.97;;;;;;;27.23;31.73;99671.84;4454511;32;33468;-75
2022/05/05 11:24:53;;;;;;;4.57;2.78;;;;;;;27.03;32.04;99666.16;4455378;32;34773;-74
2022/05/05 11:27:24;;;;;;;4.00;2.85;;;;;;;27.35;35.41;99657.59;4441203;32;35016;-76
2022/05/05 11:29:54;;;;;;;4.72;2.90;;;;;;;27.87;31.43;99665.28;4456355;32;34412;-75
2022/05/05 11:32:29;;;;;;;6.62;2.55;;;;;;;27.65;31.95;99660.72;4447830;32;34200;-75
2022/05/05 11:34:58;;;;;;;4.82;2.78;;;;;;;27.39;34.16;99661.75;4455330;32;34013;-75
2022/05/05 11:37:27;;;;;;;24.85;3.80;;;;;;;27.37;32.35;99650.31;4455140;32;35044;-75
2022/05/05 11:39:55;;;;;;;5.10;3.12;;;;;;;26.66;31.41;99658.19;4470800;32;34411;-76
2022/05/05 11:42:23;;;;;;;6.53;3.22;;;;;;;27.36;31.21;99653.13;4454495;32;33407;-77
2022/05/05 11:44:51;;;;;;;5.12;2.87;;;;;;;27.64;32.22;99651.84;4455004;32;34051;-75
2022/05/05 11:47:21;;;;;;;5.65;2.75;;;;;;;27.82;30.65;99648.72;4464678;32;35064;-74
2022/05/05 11:49:56;;;;;;;4.37;2.75;;;;;;;26.77;31.37;99652.09;4456812;32;34513;-75
2022/05/05 11:52:25;;;;;;;4.72;3.00;;;;;;;26.76;31.71;99644.19;4455377;32;33515;-75
2022/05/05 11:54:56;;;;;;;3.97;2.80;;;;;;;26.66;31.83;99642.16;4454063;32;33975;-76
2022/05/05 11:57:39;;;;;;;4.60;2.72;;;;;;;26.90;29.48;99638.66;4455616;32;34995;-75
2022/05/05 12:02:58;;;;;;;4.50;3.03;;;;;;;26.60;31.41;99626.56;4469457;32;33289;-75
2022/05/05 12:05:26;;;;;;;3.35;2.53;;;;;;;26.41;30.29;99637.72;4456786;32;33781;-75
2022/05/05 12:07:54;;;;;;;3.62;2.40;;;;;;;26.19;31.82;99632.19;4450484;32;34965;-75
2022/05/05 12:10:33;;;;;;;4.10;2.80;;;;;;;27.28;32.27;99632.28;4455085;32;34473;-73
2022/05/05 12:13:04;;;;;;;9.45;3.10;;;;;;;27.17;31.30;99624.19;4459013;32;33398;-73
2022/05/05 12:15:33;;;;;;;7.18;2.53;;;;;;;26.94;32.88;99621.44;4470668;32;33914;-74
2022/05/05 12:18:01;;;;;;;5.85;2.95;;;;;;;27.41;30.88;99617.03;4454509;32;35032;-79
2022/05/05 12:20:30;;;;;;;4.90;2.65;;;;;;;27.53;30.58;99625.06;4448071;32;35123;-74
2022/05/05 12:23:00;;;;;;;4.95;2.53;;;;;;;26.81;29.96;99613.47;4440161;32;33433;-76
2022/05/05 12:25:28;;;;;;;3.60;2.55;;;;;;;26.85;32.48;99614.94;4452660;32;33878;-75